createdAt,value
2018-11-04T00:01:58.938Z,62.60
2018-11-04T00:06:49.888Z,62.60
2018-11-04T00:11:40.900Z,62.60
2018-11-04T00:16:32.613Z,62.70
2018-11-04T00:21:23.584Z,62.70
2018-11-04T00:26:14.500Z,62.80
2018-11-04T00:31:05.527Z,62.90
2018-11-04T00:35:56.456Z,62.90
2018-11-04T00:40:47.440Z,63.50
2018-11-04T00:45:38.459Z,63.00
2018-11-04T00:50:29.412Z,63.00
2018-11-04T00:55:20.401Z,63.00
2018-11-04T01:00:11.389Z,63.00
2018-11-04T01:05:02.374Z,63.00
2018-11-04T01:09:53.351Z,62.90
2018-11-04T01:14:44.350Z,62.90
2018-11-04T01:19:35.264Z,63.60
2018-11-04T01:24:26.250Z,63.00
2018-11-04T01:29:17.290Z,63.00
2018-11-04T01:34:08.152Z,63.10
2018-11-04T01:38:59.155Z,63.10
2018-11-04T01:43:50.124Z,63.00
2018-11-04T01:48:41.134Z,63.10
2018-11-04T01:53:32.103Z,63.00
2018-11-04T01:58:23.826Z,63.20
2018-11-04T02:03:15.558Z,63.20
2018-11-04T02:08:06.501Z,63.10
2018-11-04T02:12:57.388Z,63.20
2018-11-04T02:17:48.407Z,63.90
2018-11-04T02:22:39.401Z,63.30
2018-11-04T02:27:30.376Z,63.20
2018-11-04T02:32:22.171Z,63.40
2018-11-04T02:37:13.193Z,63.20
2018-11-04T02:42:04.319Z,63.30
2018-11-04T02:46:56.042Z,63.40
2018-11-04T02:51:46.971Z,63.40
2018-11-04T02:56:38.625Z,64.10
2018-11-04T03:01:29.557Z,63.60
2018-11-04T03:06:20.511Z,63.60
2018-11-04T03:11:11.417Z,63.70
2018-11-04T03:16:03.091Z,63.90
2018-11-04T03:20:54.016Z,63.90
2018-11-04T03:25:44.917Z,63.90
2018-11-04T03:30:36.563Z,64.00
2018-11-04T03:35:27.461Z,63.90
2018-11-04T03:40:19.103Z,64.80
2018-11-04T03:45:10.064Z,64.80
2018-11-04T03:50:01.724Z,65.40
2018-11-04T03:54:52.658Z,65.30
2018-11-04T03:59:43.674Z,65.40
2018-11-04T04:04:34.601Z,65.70
2018-11-04T04:09:26.249Z,66.50
2018-11-04T04:14:17.166Z,66.40
2018-11-04T04:19:08.056Z,66.80
2018-11-04T04:23:58.986Z,66.90
2018-11-04T04:28:49.890Z,66.90
2018-11-04T04:33:40.797Z,66.90
2018-11-04T04:38:32.443Z,67.00
2018-11-04T04:43:23.349Z,67.00
2018-11-04T04:48:15.016Z,67.00
2018-11-04T04:53:05.943Z,67.00
2018-11-04T04:57:56.853Z,67.00
2018-11-04T05:02:47.779Z,67.10
2018-11-04T05:07:38.683Z,67.30
2018-11-04T05:12:29.668Z,67.30
2018-11-04T05:17:20.600Z,67.30
2018-11-04T05:22:11.500Z,67.30
2018-11-04T05:27:02.410Z,67.30
2018-11-04T05:31:53.318Z,67.40
2018-11-04T05:36:44.225Z,67.40
2018-11-04T05:41:35.152Z,67.50
2018-11-04T05:46:26.052Z,67.40
2018-11-04T05:51:16.963Z,67.40
2018-11-04T05:56:07.909Z,67.60
2018-11-04T06:00:58.797Z,67.50
2018-11-04T06:05:49.696Z,67.30
2018-11-04T06:10:40.593Z,67.30
2018-11-04T06:15:31.492Z,67.40
2018-11-04T06:20:22.410Z,67.30
2018-11-04T06:25:13.357Z,67.50
2018-11-04T06:30:04.243Z,67.30
2018-11-04T06:34:55.140Z,67.30
2018-11-04T06:39:46.784Z,67.20
2018-11-04T06:44:37.691Z,67.20
2018-11-04T06:49:28.604Z,67.20
2018-11-04T06:54:19.526Z,67.30
2018-11-04T06:59:10.448Z,67.30
2018-11-04T07:04:05.188Z,67.20
2018-11-04T07:08:56.110Z,67.20
2018-11-04T07:13:47.000Z,67.40
2018-11-04T07:18:38.645Z,67.40
2018-11-04T07:23:29.546Z,67.40
2018-11-04T07:28:20.472Z,67.40
2018-11-04T07:33:11.371Z,67.30
2018-11-04T07:38:02.278Z,67.50
2018-11-04T07:42:53.202Z,67.50
2018-11-04T07:47:44.144Z,67.70
2018-11-04T07:52:35.058Z,67.60
2018-11-04T07:57:26.003Z,67.50
2018-11-04T08:02:16.892Z,67.50
2018-11-04T08:07:07.783Z,67.50
2018-11-04T08:11:58.698Z,67.60
2018-11-04T08:16:49.622Z,67.70
2018-11-04T08:21:40.545Z,67.90
2018-11-04T08:26:31.500Z,67.90
2018-11-04T08:31:23.157Z,68.00
2018-11-04T08:36:14.048Z,68.00
2018-11-04T08:41:05.015Z,68.10
2018-11-04T08:45:56.079Z,68.90
2018-11-04T08:50:46.870Z,68.20
2018-11-04T08:55:37.773Z,68.30
2018-11-04T09:00:28.754Z,68.20
2018-11-04T09:05:19.672Z,68.20
2018-11-04T09:10:10.602Z,68.20
2018-11-04T09:15:01.501Z,68.30
2018-11-04T09:19:52.441Z,68.20
2018-11-04T09:24:44.080Z,68.30
2018-11-04T09:29:35.065Z,68.10
2018-11-04T09:34:25.957Z,68.20
2018-11-04T09:39:16.869Z,68.30
2018-11-04T09:44:07.798Z,67.30
2018-11-04T09:48:58.747Z,67.30
2018-11-04T09:53:49.676Z,67.40
2018-11-04T09:58:40.574Z,67.50
2018-11-04T10:03:31.491Z,67.40
2018-11-04T10:08:22.554Z,67.50
2018-11-04T10:13:13.501Z,67.40
2018-11-04T10:18:04.368Z,67.50
2018-11-04T10:22:55.280Z,67.40
2018-11-04T10:27:46.920Z,67.90
2018-11-04T10:32:38.674Z,67.40
2018-11-04T10:37:29.608Z,67.40
2018-11-04T10:42:20.592Z,67.30
2018-11-04T10:47:12.225Z,67.30
2018-11-04T10:52:03.132Z,67.10
2018-11-04T10:56:54.060Z,67.10
2018-11-04T11:01:44.948Z,67.20
2018-11-04T11:06:35.847Z,67.30
2018-11-04T11:11:27.534Z,67.30
2018-11-04T11:16:19.177Z,67.30
2018-11-04T11:21:10.107Z,67.30
2018-11-04T11:26:01.830Z,67.60
2018-11-04T11:30:52.772Z,67.20
2018-11-04T11:35:43.707Z,67.20
2018-11-04T11:40:34.615Z,67.00
2018-11-04T11:45:25.504Z,67.10
2018-11-04T11:50:16.404Z,67.10
2018-11-04T11:55:07.323Z,67.20
2018-11-04T11:59:58.246Z,67.10
2018-11-04T12:04:49.906Z,67.20
2018-11-04T12:09:40.816Z,67.20
2018-11-04T12:14:31.758Z,67.20
2018-11-04T12:19:22.699Z,67.20
2018-11-04T12:24:14.336Z,67.20
2018-11-04T12:29:05.456Z,67.10
2018-11-04T12:33:57.092Z,67.30
2018-11-04T12:38:47.994Z,67.30
2018-11-04T12:43:38.909Z,67.20
2018-11-04T12:48:30.535Z,67.20
2018-11-04T12:53:21.489Z,67.20
2018-11-04T12:58:12.385Z,67.30
2018-11-04T13:03:03.361Z,67.40
2018-11-04T13:07:54.265Z,67.40
2018-11-04T13:12:45.212Z,67.40
2018-11-04T13:17:36.868Z,67.30
2018-11-04T13:22:27.844Z,67.40
2018-11-04T13:27:18.840Z,67.20
2018-11-04T13:32:11.288Z,67.30
2018-11-04T13:37:03.026Z,67.20
2018-11-04T13:41:53.960Z,67.20
2018-11-04T13:46:45.599Z,67.20
2018-11-04T13:51:36.555Z,67.20
2018-11-04T13:56:27.478Z,67.30
2018-11-04T14:01:20.305Z,67.40
2018-11-04T14:06:11.214Z,67.40
2018-11-04T14:11:02.113Z,67.30
2018-11-04T14:15:53.012Z,67.10
2018-11-04T14:20:43.935Z,67.20
2018-11-04T14:25:36.320Z,67.20
2018-11-04T14:30:27.254Z,67.20
2018-11-04T14:35:18.963Z,67.20
2018-11-04T14:40:09.853Z,67.20
2018-11-04T14:45:00.799Z,67.30
2018-11-04T14:49:52.461Z,67.40
2018-11-04T14:54:43.402Z,67.40
2018-11-04T14:59:34.321Z,67.50
2018-11-04T15:04:25.244Z,67.50
2018-11-04T15:09:17.025Z,67.90
2018-11-04T15:14:07.942Z,67.50
2018-11-04T15:18:58.877Z,67.50
2018-11-04T15:23:49.784Z,67.40
2018-11-04T15:28:40.691Z,67.40
2018-11-04T15:33:31.572Z,67.40
2018-11-04T15:38:23.227Z,67.40
2018-11-04T15:43:14.312Z,67.40
2018-11-04T15:48:05.217Z,67.40
2018-11-04T15:52:56.128Z,67.50
2018-11-04T15:57:47.063Z,67.50
2018-11-04T16:02:38.054Z,67.60
2018-11-04T16:07:30.464Z,67.60
2018-11-04T16:12:21.443Z,67.60
2018-11-04T16:17:12.345Z,67.70
2018-11-04T16:22:03.231Z,67.70
2018-11-04T16:26:54.202Z,67.80
2018-11-04T16:31:45.173Z,67.80
2018-11-04T16:36:36.235Z,67.70
2018-11-04T16:41:27.144Z,67.90
2018-11-04T16:46:19.523Z,67.90
2018-11-04T16:51:10.449Z,67.80
2018-11-04T16:56:02.203Z,67.70
2018-11-04T17:00:53.086Z,67.80
2018-11-04T17:05:44.248Z,67.90
2018-11-04T17:10:35.693Z,68.00
2018-11-04T17:15:27.415Z,68.10
2018-11-04T17:20:18.372Z,68.10
2018-11-04T17:25:10.021Z,68.00
2018-11-04T17:30:00.981Z,67.90
2018-11-04T17:34:51.905Z,68.00
2018-11-04T17:39:43.558Z,68.70
2018-11-04T17:44:34.565Z,68.10
2018-11-04T17:49:25.479Z,68.10
2018-11-04T17:54:17.264Z,68.90
2018-11-04T17:59:08.070Z,68.30
2018-11-04T18:03:59.026Z,68.10
2018-11-04T18:08:49.986Z,68.40
2018-11-04T18:13:40.946Z,68.50
2018-11-04T18:18:31.809Z,68.50
2018-11-04T18:23:22.734Z,68.50
2018-11-04T18:28:13.632Z,68.50
2018-11-04T18:33:04.620Z,68.60
2018-11-04T18:37:55.545Z,68.60
2018-11-04T18:42:47.205Z,68.10
2018-11-04T18:47:38.189Z,68.50
2018-11-04T18:52:29.244Z,68.50
2018-11-04T18:57:20.114Z,68.50
2018-11-04T19:02:11.112Z,68.50
2018-11-04T19:07:02.020Z,68.70
2018-11-04T19:11:53.006Z,68.70
2018-11-04T19:16:43.890Z,68.70
2018-11-04T19:21:34.850Z,68.60
2018-11-04T19:26:25.776Z,68.60
2018-11-04T19:31:16.734Z,68.60
2018-11-04T19:36:08.342Z,69.30
2018-11-04T19:40:59.285Z,68.50
2018-11-04T19:45:50.240Z,68.60
2018-11-04T19:50:41.877Z,68.80
2018-11-04T19:55:32.781Z,68.80
2018-11-04T20:00:24.435Z,68.90
2018-11-04T20:05:15.454Z,68.90
2018-11-04T20:10:07.013Z,68.80
2018-11-04T20:14:57.921Z,68.80
2018-11-04T20:20:07.883Z,68.80
2018-11-04T20:24:58.661Z,69.00
2018-11-04T20:29:49.595Z,69.00
2018-11-04T20:34:40.515Z,69.10
2018-11-04T20:39:31.426Z,68.90
2018-11-04T20:44:22.332Z,69.00
2018-11-04T20:54:31.067Z,68.70
2018-11-04T20:59:21.978Z,69.10
2018-11-04T21:04:12.906Z,69.10
2018-11-04T21:09:03.809Z,68.90
2018-11-04T21:13:54.726Z,68.90
2018-11-04T21:18:45.662Z,69.10
2018-11-04T21:23:36.553Z,69.00
2018-11-04T21:28:27.594Z,69.00
2018-11-04T21:33:19.142Z,69.10
2018-11-04T21:38:10.067Z,69.00
2018-11-04T21:43:01.155Z,68.90
2018-11-04T21:47:52.681Z,68.90
2018-11-04T21:52:43.604Z,69.50
2018-11-04T21:57:35.248Z,69.00
2018-11-04T22:02:26.258Z,68.90
2018-11-04T22:07:17.103Z,69.10
2018-11-04T22:12:08.003Z,69.70
2018-11-04T22:16:59.661Z,69.20
2018-11-04T22:21:50.570Z,69.10
2018-11-04T22:26:42.243Z,68.90
2018-11-04T22:31:33.153Z,68.90
2018-11-04T22:36:24.190Z,68.90
2018-11-04T22:41:15.129Z,69.00
2018-11-04T22:46:06.058Z,69.00
2018-11-04T22:50:57.710Z,69.20
2018-11-04T22:55:48.673Z,69.20
2018-11-04T23:00:39.673Z,69.20
2018-11-04T23:05:31.380Z,69.20
2018-11-04T23:10:22.431Z,69.20
2018-11-04T23:15:13.375Z,69.20
2018-11-04T23:20:04.273Z,69.10
2018-11-04T23:24:55.184Z,69.10
2018-11-04T23:29:46.130Z,69.30
2018-11-04T23:34:37.783Z,69.10
2018-11-04T23:39:28.718Z,69.10
2018-11-04T23:44:19.657Z,69.10
2018-11-04T23:49:11.358Z,69.00
2018-11-04T23:54:02.254Z,69.00
2018-11-04T23:58:53.167Z,68.80
